createdAt,value
2022-08-05T00:01:27.925Z,100170.78
2022-08-05T00:03:56.957Z,100172.47
2022-08-05T00:06:32.118Z,100173.84
2022-08-05T00:08:59.173Z,100187.47
2022-08-05T00:11:34.515Z,100189.03
2022-08-05T00:14:01.419Z,100181.78
2022-08-05T00:16:35.749Z,100190.59
2022-08-05T00:19:02.953Z,100192.16
2022-08-05T00:21:30.498Z,100191.03
2022-08-05T00:24:10.741Z,100189.91
2022-08-05T00:26:37.371Z,100200.47
2022-08-05T00:29:03.568Z,100205.38
2022-08-05T00:31:53.675Z,100203.00
2022-08-05T00:34:55.706Z,100213.16
2022-08-05T00:37:12.692Z,100206.59
2022-08-05T00:39:43.910Z,100206.59
2022-08-05T00:42:31.778Z,100197.28
2022-08-05T00:44:58.527Z,100204.47
2022-08-05T00:47:25.575Z,100214.03
2022-08-05T00:49:51.963Z,100204.06
2022-08-05T00:52:18.197Z,100211.63
2022-08-05T00:54:54.642Z,100217.53
2022-08-05T00:57:22.404Z,100213.22
2022-08-05T00:59:51.715Z,100215.41
2022-08-05T01:02:17.884Z,100205.06
2022-08-05T01:04:44.070Z,100188.25
2022-08-05T01:07:13.739Z,100190.94
2022-08-05T01:09:40.131Z,100178.25
2022-08-05T01:12:17.875Z,100173.19
2022-08-05T01:14:44.574Z,100176.03
2022-08-05T01:17:10.730Z,100163.72
2022-08-05T01:20:00.701Z,100146.50
2022-08-05T01:22:24.085Z,100134.53
2022-08-05T01:24:50.660Z,100120.88
2022-08-05T01:27:19.164Z,100128.31
2022-08-05T01:29:45.743Z,100143.72
2022-08-05T01:32:18.608Z,100138.72
2022-08-05T01:34:45.033Z,100151.63
2022-08-05T01:37:18.064Z,100150.97
2022-08-05T01:39:51.144Z,100144.69
2022-08-05T01:42:17.398Z,100143.38
2022-08-05T01:44:43.550Z,100151.38
2022-08-05T01:47:11.910Z,100134.38
2022-08-05T01:50:01.389Z,100124.72
2022-08-05T01:52:25.219Z,100120.03
2022-08-05T01:54:52.066Z,100119.38
2022-08-05T01:58:29.565Z,100124.53
2022-08-05T02:00:05.264Z,100118.72
2022-08-05T02:02:37.980Z,100123.88
2022-08-05T02:05:12.781Z,100141.59
2022-08-05T02:07:41.639Z,100135.41
2022-08-05T02:10:17.464Z,100141.31
2022-08-05T02:12:43.841Z,100141.31
2022-08-05T02:15:19.733Z,100140.66
2022-08-05T02:18:33.038Z,100149.03
2022-08-05T02:20:32.297Z,100160.69
2022-08-05T02:23:05.366Z,100166.72
2022-08-05T02:25:49.365Z,100173.72
2022-08-05T02:28:16.549Z,100192.09
2022-08-05T02:30:56.508Z,100193.25
2022-08-05T02:33:24.634Z,100187.59
2022-08-05T02:36:02.492Z,100197.88
2022-08-05T02:38:28.699Z,100193.25
2022-08-05T02:41:06.368Z,100181.56
2022-08-05T02:44:02.497Z,100182.94
2022-08-05T02:46:27.657Z,100187.28
2022-08-05T02:48:53.937Z,100190.97
2022-08-05T02:51:20.087Z,100202.03
2022-08-05T02:53:54.898Z,100211.03
2022-08-05T02:56:21.166Z,100206.69
2022-08-05T02:58:51.585Z,100193.34
2022-08-05T03:01:19.573Z,100198.69
2022-08-05T03:04:02.023Z,100199.50
2022-08-05T03:06:56.334Z,100207.38
2022-08-05T03:09:15.928Z,100212.72
2022-08-05T03:11:57.334Z,100224.59
2022-08-05T03:14:24.350Z,100217.13
2022-08-05T03:16:53.390Z,100213.59
2022-08-05T03:19:34.594Z,100197.44
2022-08-05T03:22:02.386Z,100180.75
2022-08-05T03:24:31.007Z,100162.94
2022-08-05T03:26:57.172Z,100147.72
2022-08-05T03:29:23.507Z,100143.94
2022-08-05T03:31:56.488Z,100144.78
2022-08-05T03:34:26.503Z,100160.31
2022-08-05T03:36:53.351Z,100206.56
2022-08-05T03:39:27.264Z,100262.44
2022-08-05T03:41:53.970Z,100286.28
2022-08-05T03:44:22.588Z,100285.28
2022-08-05T03:46:48.736Z,100279.59
2022-08-05T03:49:15.583Z,100270.25
2022-08-05T03:52:50.547Z,100265.59
2022-08-05T03:55:50.441Z,100311.34
2022-08-05T03:57:16.619Z,100331.75
2022-08-05T03:59:47.022Z,100353.59
2022-08-05T04:02:39.034Z,100338.06
2022-08-05T04:05:09.660Z,100345.75
2022-08-05T04:07:36.189Z,100348.38
2022-08-05T04:10:22.330Z,100359.53
2022-08-05T04:12:48.525Z,100356.06
2022-08-05T04:15:15.549Z,100371.75
2022-08-05T04:17:56.601Z,100376.06
2022-08-05T04:20:23.691Z,100386.09
2022-08-05T04:22:49.862Z,100391.75
2022-08-05T04:25:16.738Z,100399.28
2022-08-05T04:27:56.660Z,100406.09
2022-08-05T04:30:24.412Z,100412.56
2022-08-05T04:32:52.776Z,100403.06
2022-08-05T04:35:19.487Z,100420.41
2022-08-05T04:38:01.046Z,100428.22
2022-08-05T04:40:29.219Z,100426.66
2022-08-05T04:42:55.739Z,100426.34
2022-08-05T04:45:22.887Z,100430.47
2022-08-05T04:48:08.196Z,100436.81
2022-08-05T04:51:01.551Z,100453.59
2022-08-05T04:53:28.861Z,100458.91
2022-08-05T04:56:14.986Z,100452.53
2022-08-05T04:58:46.059Z,100469.38
2022-08-05T05:01:13.155Z,100471.34
2022-08-05T05:03:41.919Z,100483.03
2022-08-05T05:06:38.766Z,100491.53
2022-08-05T05:08:55.054Z,100499.84
2022-08-05T05:11:21.655Z,100502.50
2022-08-05T05:14:08.587Z,100492.38
2022-08-05T05:16:34.968Z,100493.22
2022-08-05T05:19:18.797Z,100491.53
2022-08-05T05:21:47.280Z,100493.22
2022-08-05T05:24:13.484Z,100499.75
2022-08-05T05:26:46.475Z,100504.22
2022-08-05T05:29:16.216Z,100482.41
2022-08-05T05:31:42.399Z,100457.44
2022-08-05T05:34:12.780Z,100463.28
2022-08-05T05:36:41.659Z,100477.41
2022-08-05T05:39:10.888Z,100477.81
2022-08-05T05:41:40.713Z,100486.50
2022-08-05T05:44:36.848Z,100490.97
2022-08-05T05:46:54.148Z,100497.19
2022-08-05T05:49:23.300Z,100503.97
2022-08-05T05:51:50.777Z,100492.16
2022-08-05T05:54:19.749Z,100497.69
2022-08-05T05:56:45.919Z,100494.00
2022-08-05T05:59:13.596Z,100490.97
2022-08-05T06:01:40.152Z,100490.00
2022-08-05T06:04:06.478Z,100486.28
2022-08-05T06:06:34.960Z,100477.28
2022-08-05T06:09:01.296Z,100484.63
2022-08-05T06:11:29.988Z,100482.63
2022-08-05T06:13:56.530Z,100473.56
2022-08-05T06:16:29.921Z,100460.84
2022-08-05T06:18:59.870Z,100456.97
2022-08-05T06:21:36.011Z,100461.97
2022-08-05T06:24:03.515Z,100461.91
2022-08-05T06:26:33.782Z,100462.06
2022-08-05T06:29:03.519Z,100465.22
2022-08-05T06:31:47.379Z,100475.47
2022-08-05T06:34:16.842Z,100474.72
2022-08-05T06:36:57.534Z,100485.34
2022-08-05T06:39:27.866Z,100476.91
2022-08-05T06:41:54.348Z,100482.50
2022-08-05T06:44:22.029Z,100472.81
2022-08-05T06:46:50.785Z,100472.97
2022-08-05T06:49:17.415Z,100474.00
2022-08-05T06:51:45.003Z,100485.88
2022-08-05T06:54:12.060Z,100502.34
2022-08-05T06:56:54.713Z,100498.28
2022-08-05T06:59:38.549Z,100478.19
2022-08-05T07:02:05.117Z,100497.19
2022-08-05T07:04:31.319Z,100500.13
2022-08-05T07:06:59.229Z,100499.84
2022-08-05T07:09:25.406Z,100486.03
2022-08-05T07:12:00.489Z,100495.91
2022-08-05T07:14:29.207Z,100494.00
2022-08-05T07:18:00.013Z,100497.34
2022-08-05T07:20:31.005Z,100492.94
2022-08-05T07:22:30.134Z,100507.72
2022-08-05T07:24:56.639Z,100511.19
2022-08-05T07:27:23.013Z,100516.28
2022-08-05T07:30:28.015Z,100520.44
2022-08-05T07:32:40.120Z,100515.38
2022-08-05T07:36:02.309Z,100522.72
2022-08-05T07:37:54.843Z,100525.88
2022-08-05T07:40:31.853Z,100527.31
2022-08-05T07:42:58.964Z,100517.56
2022-08-05T07:45:43.381Z,100524.47
2022-08-05T07:48:11.317Z,100502.78
2022-08-05T07:50:39.597Z,100499.34
2022-08-05T07:53:08.281Z,100506.19
2022-08-05T07:55:44.195Z,100510.84
2022-08-05T07:58:57.214Z,100515.00
2022-08-05T08:01:12.368Z,100513.41
2022-08-05T08:03:44.332Z,100524.09
2022-08-05T08:06:11.238Z,100509.88
2022-08-05T08:08:37.397Z,100513.53
2022-08-05T08:11:03.593Z,100521.03
2022-08-05T08:13:49.289Z,100543.00
2022-08-05T08:16:50.519Z,100546.47
2022-08-05T08:19:01.785Z,100533.81
2022-08-05T08:21:28.387Z,100549.41
2022-08-05T08:24:01.846Z,100538.78
2022-08-05T08:26:30.727Z,100527.09
2022-08-05T08:28:59.825Z,100525.41
2022-08-05T08:31:43.122Z,100504.66
2022-08-05T08:34:09.273Z,100485.88
2022-08-05T08:36:49.027Z,100460.13
2022-08-05T08:39:16.747Z,100447.88
2022-08-05T08:41:51.989Z,100464.94
2022-08-05T08:45:24.014Z,100426.59
2022-08-05T08:47:21.617Z,100420.72
2022-08-05T08:50:13.127Z,100440.03
2022-08-05T08:52:34.735Z,100429.91
2022-08-05T08:55:00.931Z,100422.09
2022-08-05T08:57:42.061Z,100404.06
2022-08-05T09:00:13.309Z,100404.63
2022-08-05T09:02:41.984Z,100424.78
2022-08-05T09:05:16.628Z,100406.56
2022-08-05T09:07:57.413Z,100411.34
2022-08-05T09:10:27.691Z,100421.19
2022-08-05T09:12:55.874Z,100413.06
2022-08-05T09:15:22.087Z,100425.88
2022-08-05T09:17:52.917Z,100444.22
2022-08-05T09:20:37.848Z,100447.91
2022-08-05T09:23:05.039Z,100448.47
2022-08-05T09:26:03.413Z,100456.25
2022-08-05T09:28:21.158Z,100467.03
2022-08-05T09:30:47.484Z,100467.88
2022-08-05T09:33:17.202Z,100474.59
2022-08-05T09:35:43.446Z,100472.59
2022-08-05T09:38:12.672Z,100465.75
2022-08-05T09:40:52.742Z,100466.97
2022-08-05T09:43:20.219Z,100478.59
2022-08-05T09:46:06.757Z,100479.16
2022-08-05T09:48:32.631Z,100473.34
2022-08-05T09:50:58.861Z,100452.78
2022-08-05T09:53:54.951Z,100457.16
2022-08-05T09:56:13.532Z,100448.69
2022-08-05T09:58:41.668Z,100463.56
2022-08-05T10:01:14.574Z,100464.25
2022-08-05T10:03:56.564Z,100463.38
2022-08-05T10:06:23.423Z,100470.72
2022-08-05T10:08:50.364Z,100473.09
2022-08-05T10:11:20.192Z,100472.69
2022-08-05T10:13:48.324Z,100473.56
2022-08-05T10:16:15.478Z,100470.16
2022-08-05T10:18:43.127Z,100469.94
2022-08-05T10:21:15.636Z,100475.25
2022-08-05T10:23:59.688Z,100476.25
2022-08-05T10:26:32.381Z,100477.59
2022-08-05T10:29:00.069Z,100486.16
2022-08-05T10:32:54.812Z,100482.22
2022-08-05T10:34:12.548Z,100494.47
2022-08-05T10:36:39.783Z,100495.44
2022-08-05T10:39:11.658Z,100495.63
2022-08-05T10:41:45.353Z,100494.13
2022-08-05T10:44:13.190Z,100490.66
2022-08-05T10:46:39.347Z,100487.72
2022-08-05T10:49:09.828Z,100486.59
2022-08-05T10:51:36.424Z,100486.38
2022-08-05T10:54:28.580Z,100479.13
2022-08-05T10:56:58.903Z,100483.72
2022-08-05T11:00:02.963Z,100463.75
2022-08-05T11:02:14.476Z,100452.63
2022-08-05T11:04:58.000Z,100448.72
2022-08-05T11:07:32.853Z,100451.06
2022-08-05T11:10:10.426Z,100473.34
2022-08-05T11:12:38.038Z,100479.88
2022-08-05T11:15:19.082Z,100482.06
2022-08-05T11:17:57.232Z,100487.59
2022-08-05T11:20:26.764Z,100489.53
2022-08-05T11:22:58.044Z,100492.88
2022-08-05T11:26:05.273Z,100514.94
2022-08-05T11:28:17.241Z,100504.84
2022-08-05T11:30:43.624Z,100507.84
2022-08-05T11:33:20.903Z,100511.28
2022-08-05T11:36:07.951Z,100499.56
2022-08-05T11:38:45.271Z,100505.75
2022-08-05T11:41:58.056Z,100498.53
2022-08-05T11:44:07.202Z,100505.66
2022-08-05T11:46:34.263Z,100515.56
2022-08-05T11:49:01.289Z,100508.66
2022-08-05T11:51:44.667Z,100521.47
2022-08-05T11:54:14.172Z,100521.06
2022-08-05T11:56:40.938Z,100519.59
2022-08-05T11:59:13.834Z,100523.72
2022-08-05T12:01:42.118Z,100521.22
2022-08-05T12:04:09.906Z,100525.28
2022-08-05T12:06:39.883Z,100523.16
2022-08-05T12:09:19.925Z,100536.75
2022-08-05T12:11:46.434Z,100539.56
2022-08-05T12:14:13.564Z,100535.16
2022-08-05T12:16:39.804Z,100520.34
2022-08-05T12:19:06.075Z,100533.28
2022-08-05T12:21:38.999Z,100528.25
2022-08-05T12:24:06.975Z,100525.63
2022-08-05T12:26:33.671Z,100521.78
2022-08-05T12:29:01.382Z,100526.13
2022-08-05T12:31:33.665Z,100520.41
2022-08-05T12:34:16.411Z,100521.50
2022-08-05T12:36:47.245Z,100530.13
2022-08-05T12:39:13.489Z,100537.94
2022-08-05T12:41:43.905Z,100542.56
2022-08-05T12:44:11.671Z,100538.09
2022-08-05T12:46:40.503Z,100544.06
2022-08-05T12:49:13.108Z,100546.25
2022-08-05T12:52:13.976Z,100547.09
2022-08-05T12:54:26.765Z,100550.34
2022-08-05T12:56:52.977Z,100552.75
2022-08-05T12:59:23.852Z,100560.38
2022-08-05T13:01:59.857Z,100558.38
2022-08-05T13:04:32.307Z,100559.31
2022-08-05T13:06:58.471Z,100558.88
2022-08-05T13:09:27.977Z,100556.63
2022-08-05T13:12:01.648Z,100562.72
2022-08-05T13:14:36.079Z,100568.81
2022-08-05T13:17:02.894Z,100568.78
2022-08-05T13:19:51.900Z,100572.97
2022-08-05T13:22:28.086Z,100568.97
2022-08-05T13:24:58.079Z,100576.59
2022-08-05T13:27:36.316Z,100564.66
2022-08-05T13:30:35.042Z,100568.78
2022-08-05T13:32:51.747Z,100564.72
2022-08-05T13:35:22.472Z,100573.09
2022-08-05T13:38:05.074Z,100572.41
2022-08-05T13:40:51.544Z,100567.22
2022-08-05T13:43:22.015Z,100566.59
2022-08-05T13:45:48.532Z,100563.31
2022-08-05T13:48:58.358Z,100555.16
2022-08-05T13:51:03.168Z,100549.94
2022-08-05T13:53:29.339Z,100549.34
2022-08-05T13:56:01.977Z,100551.06
2022-08-05T13:58:31.208Z,100549.59
2022-08-05T14:00:57.463Z,100540.53
2022-08-05T14:03:23.985Z,100539.78
2022-08-05T14:06:25.190Z,100534.41
2022-08-05T14:08:36.778Z,100535.78
2022-08-05T14:11:21.030Z,100529.91
2022-08-05T14:13:48.532Z,100525.66
2022-08-05T14:16:20.996Z,100527.94
2022-08-05T14:18:47.161Z,100516.03
2022-08-05T14:21:24.065Z,100517.25
2022-08-05T14:24:00.510Z,100520.72
2022-08-05T14:26:37.067Z,100513.03
2022-08-05T14:29:15.963Z,100516.34
2022-08-05T14:32:02.600Z,100511.97
2022-08-05T14:34:29.339Z,100511.56
2022-08-05T14:37:01.717Z,100519.94
2022-08-05T14:39:27.918Z,100504.44
2022-08-05T14:42:15.891Z,100515.72
2022-08-05T14:44:41.584Z,100501.00
2022-08-05T14:47:07.767Z,100509.78
2022-08-05T14:49:59.621Z,100510.34
2022-08-05T14:52:36.578Z,100519.00
2022-08-05T14:55:07.423Z,100511.19
2022-08-05T14:57:34.055Z,100510.94
2022-08-05T15:00:20.024Z,100507.28
2022-08-05T15:02:46.349Z,100508.97
2022-08-05T15:05:13.517Z,100510.81
2022-08-05T15:08:11.357Z,100518.53
2022-08-05T15:10:28.893Z,100521.94
2022-08-05T15:13:00.861Z,100521.84
2022-08-05T15:15:54.420Z,100527.72
2022-08-05T15:18:15.759Z,100530.59
2022-08-05T15:20:43.606Z,100531.13
2022-08-05T15:23:12.154Z,100528.44
2022-08-05T15:25:53.053Z,100535.94
2022-08-05T15:28:26.982Z,100533.97
2022-08-05T15:30:54.093Z,100548.63
2022-08-05T15:34:18.486Z,100560.97
2022-08-05T15:36:16.944Z,100578.00
2022-08-05T15:38:44.430Z,100585.97
2022-08-05T15:41:23.160Z,100586.22
2022-08-05T15:43:50.452Z,100582.25
2022-08-05T15:46:16.765Z,100593.69
2022-08-05T15:48:52.872Z,100592.88
2022-08-05T15:52:10.017Z,100590.50
2022-08-05T15:54:11.363Z,100599.75
2022-08-05T15:56:41.667Z,100592.31
2022-08-05T15:59:07.819Z,100603.34
2022-08-05T16:01:39.474Z,100607.75
2022-08-05T16:04:06.204Z,100613.50
2022-08-05T16:06:36.548Z,100614.81
2022-08-05T16:09:02.937Z,100618.41
2022-08-05T16:11:42.469Z,100620.84
2022-08-05T16:14:09.777Z,100617.94
2022-08-05T16:16:35.955Z,100626.16
2022-08-05T16:19:02.176Z,100632.75
2022-08-05T16:22:00.466Z,100653.56
2022-08-05T16:24:41.532Z,100649.09
2022-08-05T16:27:00.661Z,100656.41
2022-08-05T16:29:26.836Z,100658.94
2022-08-05T16:31:57.793Z,100664.09
2022-08-05T16:34:24.066Z,100660.59
2022-08-05T16:36:50.267Z,100660.59
2022-08-05T16:39:18.678Z,100659.44
2022-08-05T16:42:27.732Z,100666.44
2022-08-05T16:44:33.136Z,100668.13
2022-08-05T16:46:59.297Z,100669.13
2022-08-05T16:49:25.460Z,100675.47
2022-08-05T16:51:56.850Z,100676.50
2022-08-05T16:54:28.903Z,100677.81
2022-08-05T16:56:59.004Z,100687.81
2022-08-05T16:59:25.175Z,100699.72
2022-08-05T17:01:56.087Z,100692.44
2022-08-05T17:04:23.927Z,100692.78
2022-08-05T17:06:53.577Z,100685.91
2022-08-05T17:09:19.884Z,100689.50
2022-08-05T17:11:48.706Z,100699.22
2022-08-05T17:14:34.122Z,100707.09
2022-08-05T17:17:01.004Z,100712.16
2022-08-05T17:19:28.816Z,100710.22
2022-08-05T17:21:56.787Z,100707.91
2022-08-05T17:24:35.313Z,100719.75
2022-08-05T17:27:08.555Z,100728.06
2022-08-05T17:29:41.343Z,100728.63
2022-08-05T17:32:08.428Z,100719.00
2022-08-05T17:34:35.011Z,100727.97
2022-08-05T17:37:01.197Z,100726.06
2022-08-05T17:39:33.903Z,100727.22
2022-08-05T17:42:17.499Z,100727.50
2022-08-05T17:44:50.270Z,100721.66
2022-08-05T17:47:17.464Z,100733.25
2022-08-05T17:49:52.039Z,100730.84
2022-08-05T17:52:30.659Z,100740.84
2022-08-05T17:54:57.368Z,100736.47
2022-08-05T17:57:24.493Z,100747.28
2022-08-05T18:00:05.496Z,100751.09
2022-08-05T18:02:32.219Z,100750.41
2022-08-05T18:04:58.498Z,100744.13
2022-08-05T18:07:25.024Z,100754.94
2022-08-05T18:10:08.989Z,100769.13
2022-08-05T18:12:36.732Z,100775.03
2022-08-05T18:15:03.583Z,100768.16
2022-08-05T18:17:59.599Z,100785.97
2022-08-05T18:20:17.231Z,100791.75
2022-08-05T18:22:53.815Z,100789.78
2022-08-05T18:25:20.957Z,100796.09
2022-08-05T18:27:52.483Z,100800.44
2022-08-05T18:30:19.014Z,100800.59
2022-08-05T18:32:59.958Z,100803.50
2022-08-05T18:35:49.417Z,100798.47
2022-08-05T18:38:13.002Z,100794.53
2022-08-05T18:41:55.808Z,100802.09
2022-08-05T18:43:31.662Z,100811.22
2022-08-05T18:46:04.376Z,100811.06
2022-08-05T18:48:33.007Z,100819.06
2022-08-05T18:52:03.069Z,100818.09
2022-08-05T18:53:50.330Z,100826.06
2022-08-05T18:56:16.842Z,100827.75
2022-08-05T18:58:47.983Z,100830.13
2022-08-05T19:01:17.783Z,100841.78
2022-08-05T19:03:53.286Z,100853.66
2022-08-05T19:06:34.130Z,100866.81
2022-08-05T19:09:04.084Z,100866.44
2022-08-05T19:11:59.382Z,100873.97
2022-08-05T19:14:59.466Z,100866.81
2022-08-05T19:17:02.642Z,100882.66
2022-08-05T19:19:32.716Z,100896.38
2022-08-05T19:22:00.274Z,100897.66
2022-08-05T19:24:34.579Z,100902.97
2022-08-05T19:27:03.929Z,100905.06
2022-08-05T19:29:36.041Z,100905.22
2022-08-05T19:32:02.734Z,100917.94
2022-08-05T19:34:30.660Z,100909.69
2022-08-05T19:36:56.807Z,100910.78
2022-08-05T19:39:23.029Z,100909.69
2022-08-05T19:42:05.622Z,100918.91
2022-08-05T19:44:36.281Z,100922.41
2022-08-05T19:47:10.633Z,100929.81
2022-08-05T19:49:41.332Z,100929.81
2022-08-05T19:52:30.334Z,100921.56
2022-08-05T19:54:54.417Z,100930.91
2022-08-05T19:57:46.545Z,100937.06
2022-08-05T20:00:06.736Z,100931.91
2022-08-05T20:02:32.946Z,100935.38
2022-08-05T20:04:59.798Z,100944.34
2022-08-05T20:07:46.397Z,100946.44
2022-08-05T20:10:13.666Z,100945.97
2022-08-05T20:12:47.790Z,100962.75
2022-08-05T20:15:23.038Z,100978.28
2022-08-05T20:18:01.787Z,100980.94
2022-08-05T20:20:39.552Z,100981.88
2022-08-05T20:23:05.757Z,100989.03
2022-08-05T20:25:39.975Z,100990.97
2022-08-05T20:28:13.696Z,100986.75
2022-08-05T20:30:41.614Z,100993.19
2022-08-05T20:33:07.821Z,100992.34
2022-08-05T20:35:40.657Z,100996.28
2022-08-05T20:38:20.163Z,101000.16
2022-08-05T20:40:52.922Z,101002.09
2022-08-05T20:43:57.358Z,101005.16
2022-08-05T20:46:10.122Z,101009.25
2022-08-05T20:48:38.701Z,101007.09
2022-08-05T20:51:08.543Z,101020.84
2022-08-05T20:53:36.553Z,101020.13
2022-08-05T20:56:08.731Z,101031.00
2022-08-05T20:58:35.430Z,101032.28
2022-08-05T21:01:01.700Z,101043.84
2022-08-05T21:03:29.548Z,101039.66
2022-08-05T21:06:00.950Z,101048.72
2022-08-05T21:08:41.327Z,101049.56
2022-08-05T21:11:09.340Z,101057.66
2022-08-05T21:13:55.707Z,101046.84
2022-08-05T21:16:22.703Z,101046.84
2022-08-05T21:18:55.464Z,101043.47
2022-08-05T21:21:24.458Z,101055.06
2022-08-05T21:23:50.784Z,101049.56
2022-08-05T21:26:18.240Z,101057.06
2022-08-05T21:28:50.928Z,101053.81
2022-08-05T21:31:17.327Z,101055.06
2022-08-05T21:33:43.548Z,101062.31
2022-08-05T21:36:14.124Z,101054.56
2022-08-05T21:38:53.671Z,101060.50
2022-08-05T21:41:20.753Z,101060.88
2022-08-05T21:44:01.280Z,101062.81
2022-08-05T21:46:28.111Z,101066.34
2022-08-05T21:48:56.626Z,101072.16
2022-08-05T21:51:25.191Z,101075.16
2022-08-05T21:54:09.496Z,101078.28
2022-08-05T21:56:35.674Z,101081.91
2022-08-05T21:59:24.091Z,101078.66
2022-08-05T22:01:54.716Z,101082.19
2022-08-05T22:04:20.984Z,101087.28
2022-08-05T22:06:51.477Z,101078.59
2022-08-05T22:09:20.999Z,101093.06
2022-08-05T22:11:48.465Z,101103.56
2022-08-05T22:14:34.070Z,101102.13
2022-08-05T22:17:03.866Z,101098.50
2022-08-05T22:20:00.466Z,101099.13
2022-08-05T22:22:27.082Z,101114.06
2022-08-05T22:24:56.007Z,101117.34
2022-08-05T22:27:22.315Z,101113.13
2022-08-05T22:29:48.470Z,101116.63
2022-08-05T22:32:20.338Z,101122.75
2022-08-05T22:34:49.186Z,101122.88
2022-08-05T22:37:15.611Z,101123.25
2022-08-05T22:39:41.829Z,101134.84
2022-08-05T22:42:15.417Z,101142.06
2022-08-05T22:44:56.264Z,101150.41
2022-08-05T22:47:30.127Z,101154.25
2022-08-05T22:50:21.472Z,101158.69
2022-08-05T22:52:42.912Z,101158.09
2022-08-05T22:55:18.369Z,101152.06
2022-08-05T22:57:46.200Z,101159.41
2022-08-05T23:00:12.462Z,101161.69
2022-08-05T23:02:46.973Z,101154.94
2022-08-05T23:05:13.687Z,101164.47
2022-08-05T23:07:48.289Z,101164.59
2022-08-05T23:10:15.786Z,101170.25
2022-08-05T23:12:45.904Z,101172.78
2022-08-05T23:15:12.317Z,101171.31
2022-08-05T23:18:00.800Z,101167.00
2022-08-05T23:20:25.180Z,101172.88
2022-08-05T23:22:56.044Z,101178.19
2022-08-05T23:25:51.862Z,101172.88
2022-08-05T23:28:08.752Z,101180.84
2022-08-05T23:30:34.920Z,101187.97
2022-08-05T23:33:06.891Z,101194.34
2022-08-05T23:35:42.705Z,101197.09
2022-08-05T23:38:12.120Z,101203.16
2022-08-05T23:40:38.410Z,101205.63
2022-08-05T23:43:24.348Z,101207.69
2022-08-05T23:45:50.789Z,101209.50
2022-08-05T23:48:17.061Z,101214.41
2022-08-05T23:50:45.840Z,101219.97
2022-08-05T23:53:22.891Z,101227.91
2022-08-05T23:55:49.363Z,101231.38
2022-08-05T23:58:31.821Z,101234.50
